sensor_id;sensor_type;location;lat;lon;timestamp;P1;durP1;ratioP1;P2;durP2;ratioP2
51949;SDS011;37974;53.218;6.640;2023-04-03T00:01:55;3.63;;;1.10;;
51949;SDS011;37974;53.218;6.640;2023-04-03T00:04:21;3.83;;;0.98;;
51949;SDS011;37974;53.218;6.640;2023-04-03T00:06:46;5.43;;;1.33;;
51949;SDS011;37974;53.218;6.640;2023-04-03T00:09:12;5.75;;;1.20;;
51949;SDS011;37974;53.218;6.640;2023-04-03T00:11:38;3.58;;;0.88;;
51949;SDS011;37974;53.218;6.640;2023-04-03T00:14:03;3.03;;;1.10;;
51949;SDS011;37974;53.218;6.640;2023-04-03T00:16:29;2.83;;;1.13;;
51949;SDS011;37974;53.218;6.640;2023-04-03T00:18:55;4.20;;;1.00;;
51949;SDS011;37974;53.218;6.640;2023-04-03T00:21:23;5.65;;;0.90;;
51949;SDS011;37974;53.218;6.640;2023-04-03T00:23:49;4.07;;;1.10;;
51949;SDS011;37974;53.218;6.640;2023-04-03T00:26:15;2.60;;;0.93;;
51949;SDS011;37974;53.218;6.640;2023-04-03T00:28:41;3.97;;;1.30;;
51949;SDS011;37974;53.218;6.640;2023-04-03T00:31:06;5.22;;;1.33;;
51949;SDS011;37974;53.218;6.640;2023-04-03T00:33:32;7.03;;;1.60;;
51949;SDS011;37974;53.218;6.640;2023-04-03T00:35:58;4.95;;;1.10;;
51949;SDS011;37974;53.218;6.640;2023-04-03T00:38:23;4.90;;;1.38;;
51949;SDS011;37974;53.218;6.640;2023-04-03T00:40:49;3.45;;;1.30;;
51949;SDS011;37974;53.218;6.640;2023-04-03T00:43:16;4.50;;;1.30;;
51949;SDS011;37974;53.218;6.640;2023-04-03T00:45:46;4.45;;;1.13;;
51949;SDS011;37974;53.218;6.640;2023-04-03T00:48:15;3.97;;;1.15;;
51949;SDS011;37974;53.218;6.640;2023-04-03T00:50:47;5.85;;;1.27;;
51949;SDS011;37974;53.218;6.640;2023-04-03T00:53:17;4.88;;;1.13;;
51949;SDS011;37974;53.218;6.640;2023-04-03T00:55:47;5.63;;;1.40;;
51949;SDS011;37974;53.218;6.640;2023-04-03T00:58:13;4.63;;;0.90;;
51949;SDS011;37974;53.218;6.640;2023-04-03T01:00:43;6.30;;;1.60;;
51949;SDS011;37974;53.218;6.640;2023-04-03T01:03:15;4.40;;;1.13;;
51949;SDS011;37974;53.218;6.640;2023-04-03T01:05:41;5.50;;;1.25;;
51949;SDS011;37974;53.218;6.640;2023-04-03T01:08:06;4.47;;;1.38;;
51949;SDS011;37974;53.218;6.640;2023-04-03T01:10:32;7.07;;;1.55;;
51949;SDS011;37974;53.218;6.640;2023-04-03T01:12:58;3.17;;;1.50;;
51949;SDS011;37974;53.218;6.640;2023-04-03T01:15:26;3.72;;;1.10;;
51949;SDS011;37974;53.218;6.640;2023-04-03T01:17:57;5.72;;;1.40;;
51949;SDS011;37974;53.218;6.640;2023-04-03T01:23:06;6.80;;;1.33;;
51949;SDS011;37974;53.218;6.640;2023-04-03T01:28:07;6.85;;;1.40;;
51949;SDS011;37974;53.218;6.640;2023-04-03T01:30:39;6.35;;;1.63;;
51949;SDS011;37974;53.218;6.640;2023-04-03T01:33:17;7.93;;;1.42;;
51949;SDS011;37974;53.218;6.640;2023-04-03T01:35:43;9.13;;;2.13;;
51949;SDS011;37974;53.218;6.640;2023-04-03T01:38:08;5.25;;;1.35;;
51949;SDS011;37974;53.218;6.640;2023-04-03T01:40:35;4.38;;;1.25;;
51949;SDS011;37974;53.218;6.640;2023-04-03T01:43:01;6.93;;;1.48;;
51949;SDS011;37974;53.218;6.640;2023-04-03T01:45:26;6.22;;;1.63;;
51949;SDS011;37974;53.218;6.640;2023-04-03T01:47:52;7.32;;;1.42;;
51949;SDS011;37974;53.218;6.640;2023-04-03T01:50:18;8.02;;;1.80;;
51949;SDS011;37974;53.218;6.640;2023-04-03T01:52:44;7.57;;;1.77;;
51949;SDS011;37974;53.218;6.640;2023-04-03T01:55:09;9.75;;;1.70;;
51949;SDS011;37974;53.218;6.640;2023-04-03T01:57:35;9.00;;;1.60;;
51949;SDS011;37974;53.218;6.640;2023-04-03T02:00:01;4.82;;;1.80;;
51949;SDS011;37974;53.218;6.640;2023-04-03T02:02:26;9.05;;;1.50;;
51949;SDS011;37974;53.218;6.640;2023-04-03T02:04:52;7.60;;;1.60;;
51949;SDS011;37974;53.218;6.640;2023-04-03T02:07:18;6.53;;;1.85;;
51949;SDS011;37974;53.218;6.640;2023-04-03T02:09:44;9.10;;;1.85;;
51949;SDS011;37974;53.218;6.640;2023-04-03T02:12:09;6.60;;;1.63;;
51949;SDS011;37974;53.218;6.640;2023-04-03T02:14:35;5.75;;;1.30;;
51949;SDS011;37974;53.218;6.640;2023-04-03T02:17:01;5.43;;;1.60;;
51949;SDS011;37974;53.218;6.640;2023-04-03T02:19:30;7.03;;;1.50;;
51949;SDS011;37974;53.218;6.640;2023-04-03T02:21:56;6.60;;;1.58;;
51949;SDS011;37974;53.218;6.640;2023-04-03T02:24:22;6.45;;;1.65;;
51949;SDS011;37974;53.218;6.640;2023-04-03T02:26:48;10.25;;;2.25;;
51949;SDS011;37974;53.218;6.640;2023-04-03T02:29:14;5.72;;;1.30;;
51949;SDS011;37974;53.218;6.640;2023-04-03T02:31:39;6.78;;;1.75;;
51949;SDS011;37974;53.218;6.640;2023-04-03T02:34:05;8.80;;;1.77;;
51949;SDS011;37974;53.218;6.640;2023-04-03T02:36:31;11.32;;;1.90;;
51949;SDS011;37974;53.218;6.640;2023-04-03T02:38:56;5.38;;;1.63;;
51949;SDS011;37974;53.218;6.640;2023-04-03T02:41:22;10.77;;;2.35;;
51949;SDS011;37974;53.218;6.640;2023-04-03T02:43:50;8.65;;;1.77;;
51949;SDS011;37974;53.218;6.640;2023-04-03T02:46:16;6.55;;;1.60;;
51949;SDS011;37974;53.218;6.640;2023-04-03T02:48:41;9.07;;;2.33;;
51949;SDS011;37974;53.218;6.640;2023-04-03T02:51:07;7.60;;;2.08;;
51949;SDS011;37974;53.218;6.640;2023-04-03T02:53:33;7.57;;;2.15;;
51949;SDS011;37974;53.218;6.640;2023-04-03T02:55:58;9.07;;;2.13;;
51949;SDS011;37974;53.218;6.640;2023-04-03T02:58:24;7.00;;;2.13;;
51949;SDS011;37974;53.218;6.640;2023-04-03T03:00:50;8.13;;;1.90;;
51949;SDS011;37974;53.218;6.640;2023-04-03T03:03:15;10.98;;;1.75;;
51949;SDS011;37974;53.218;6.640;2023-04-03T03:05:41;7.78;;;1.75;;
51949;SDS011;37974;53.218;6.640;2023-04-03T03:08:07;6.28;;;1.67;;
51949;SDS011;37974;53.218;6.640;2023-04-03T03:10:32;6.47;;;2.03;;
51949;SDS011;37974;53.218;6.640;2023-04-03T03:12:58;11.93;;;2.08;;
51949;SDS011;37974;53.218;6.640;2023-04-03T03:15:24;11.77;;;1.77;;
51949;SDS011;37974;53.218;6.640;2023-04-03T03:17:51;9.93;;;2.25;;
51949;SDS011;37974;53.218;6.640;2023-04-03T03:20:17;9.00;;;2.00;;
51949;SDS011;37974;53.218;6.640;2023-04-03T03:22:42;10.77;;;2.25;;
51949;SDS011;37974;53.218;6.640;2023-04-03T03:25:08;7.57;;;2.13;;
51949;SDS011;37974;53.218;6.640;2023-04-03T03:27:34;7.07;;;1.85;;
51949;SDS011;37974;53.218;6.640;2023-04-03T03:30:00;6.78;;;2.00;;
51949;SDS011;37974;53.218;6.640;2023-04-03T03:32:26;8.18;;;1.90;;
51949;SDS011;37974;53.218;6.640;2023-04-03T03:34:51;5.63;;;2.17;;
51949;SDS011;37974;53.218;6.640;2023-04-03T03:37:17;10.93;;;2.50;;
51949;SDS011;37974;53.218;6.640;2023-04-03T03:39:43;8.73;;;2.20;;
51949;SDS011;37974;53.218;6.640;2023-04-03T03:42:08;6.10;;;2.00;;
51949;SDS011;37974;53.218;6.640;2023-04-03T03:44:34;6.95;;;1.92;;
51949;SDS011;37974;53.218;6.640;2023-04-03T03:47:00;10.95;;;2.60;;
51949;SDS011;37974;53.218;6.640;2023-04-03T03:49:26;9.48;;;2.30;;
51949;SDS011;37974;53.218;6.640;2023-04-03T03:51:51;9.00;;;2.15;;
51949;SDS011;37974;53.218;6.640;2023-04-03T03:54:17;12.80;;;2.08;;
51949;SDS011;37974;53.218;6.640;2023-04-03T03:56:43;10.00;;;2.50;;
51949;SDS011;37974;53.218;6.640;2023-04-03T03:59:11;14.07;;;2.42;;
51949;SDS011;37974;53.218;6.640;2023-04-03T04:01:36;8.10;;;2.25;;
51949;SDS011;37974;53.218;6.640;2023-04-03T04:04:02;8.98;;;2.28;;
51949;SDS011;37974;53.218;6.640;2023-04-03T04:06:28;7.20;;;2.10;;
51949;SDS011;37974;53.218;6.640;2023-04-03T04:08:54;7.80;;;2.97;;
51949;SDS011;37974;53.218;6.640;2023-04-03T04:11:19;13.95;;;2.97;;
51949;SDS011;37974;53.218;6.640;2023-04-03T04:13:46;11.55;;;2.42;;
51949;SDS011;37974;53.218;6.640;2023-04-03T04:16:12;12.35;;;2.78;;
51949;SDS011;37974;53.218;6.640;2023-04-03T04:18:38;9.27;;;2.50;;
51949;SDS011;37974;53.218;6.640;2023-04-03T04:21:04;8.55;;;2.45;;
51949;SDS011;37974;53.218;6.640;2023-04-03T04:23:29;8.55;;;2.70;;
51949;SDS011;37974;53.218;6.640;2023-04-03T04:25:55;10.48;;;2.85;;
51949;SDS011;37974;53.218;6.640;2023-04-03T04:28:21;6.90;;;2.53;;
51949;SDS011;37974;53.218;6.640;2023-04-03T04:30:47;10.15;;;2.28;;
51949;SDS011;37974;53.218;6.640;2023-04-03T04:33:12;7.28;;;2.33;;
51949;SDS011;37974;53.218;6.640;2023-04-03T04:35:39;13.48;;;3.00;;
51949;SDS011;37974;53.218;6.640;2023-04-03T04:38:06;12.85;;;3.00;;
51949;SDS011;37974;53.218;6.640;2023-04-03T04:40:33;9.77;;;2.85;;
51949;SDS011;37974;53.218;6.640;2023-04-03T04:42:59;11.23;;;3.00;;
51949;SDS011;37974;53.218;6.640;2023-04-03T04:45:25;12.07;;;3.03;;
51949;SDS011;37974;53.218;6.640;2023-04-03T04:47:51;10.15;;;2.80;;
51949;SDS011;37974;53.218;6.640;2023-04-03T04:50:18;11.55;;;3.05;;
51949;SDS011;37974;53.218;6.640;2023-04-03T04:52:43;11.88;;;2.83;;
51949;SDS011;37974;53.218;6.640;2023-04-03T04:55:09;10.63;;;3.20;;
51949;SDS011;37974;53.218;6.640;2023-04-03T04:57:35;14.27;;;3.35;;
51949;SDS011;37974;53.218;6.640;2023-04-03T05:00:02;14.73;;;3.10;;
51949;SDS011;37974;53.218;6.640;2023-04-03T05:02:28;11.55;;;3.15;;
51949;SDS011;37974;53.218;6.640;2023-04-03T05:04:54;12.15;;;3.03;;
51949;SDS011;37974;53.218;6.640;2023-04-03T05:07:19;8.43;;;2.97;;
51949;SDS011;37974;53.218;6.640;2023-04-03T05:09:45;12.30;;;3.58;;
51949;SDS011;37974;53.218;6.640;2023-04-03T05:12:11;11.63;;;3.15;;
51949;SDS011;37974;53.218;6.640;2023-04-03T05:14:36;10.63;;;3.15;;
51949;SDS011;37974;53.218;6.640;2023-04-03T05:17:02;13.07;;;3.35;;
51949;SDS011;37974;53.218;6.640;2023-04-03T05:19:28;9.10;;;2.80;;
51949;SDS011;37974;53.218;6.640;2023-04-03T05:21:54;9.68;;;2.58;;
51949;SDS011;37974;53.218;6.640;2023-04-03T05:24:20;6.88;;;2.78;;
51949;SDS011;37974;53.218;6.640;2023-04-03T05:26:45;14.07;;;2.65;;
51949;SDS011;37974;53.218;6.640;2023-04-03T05:29:11;10.90;;;3.17;;
51949;SDS011;37974;53.218;6.640;2023-04-03T05:31:37;9.63;;;3.05;;
51949;SDS011;37974;53.218;6.640;2023-04-03T05:34:03;12.57;;;2.83;;
51949;SDS011;37974;53.218;6.640;2023-04-03T05:36:28;7.07;;;2.40;;
51949;SDS011;37974;53.218;6.640;2023-04-03T05:38:54;12.00;;;3.35;;
51949;SDS011;37974;53.218;6.640;2023-04-03T05:41:21;10.82;;;2.53;;
51949;SDS011;37974;53.218;6.640;2023-04-03T05:43:47;12.73;;;2.83;;
51949;SDS011;37974;53.218;6.640;2023-04-03T05:46:14;10.07;;;2.70;;
51949;SDS011;37974;53.218;6.640;2023-04-03T05:48:42;13.63;;;3.10;;
51949;SDS011;37974;53.218;6.640;2023-04-03T05:51:12;10.88;;;3.00;;
51949;SDS011;37974;53.218;6.640;2023-04-03T05:53:41;11.07;;;3.38;;
51949;SDS011;37974;53.218;6.640;2023-04-03T05:56:07;12.02;;;2.88;;
51949;SDS011;37974;53.218;6.640;2023-04-03T05:58:33;11.57;;;2.95;;
51949;SDS011;37974;53.218;6.640;2023-04-03T06:00:59;9.18;;;2.78;;
51949;SDS011;37974;53.218;6.640;2023-04-03T06:03:24;10.65;;;2.80;;
51949;SDS011;37974;53.218;6.640;2023-04-03T06:05:51;8.55;;;3.03;;
51949;SDS011;37974;53.218;6.640;2023-04-03T06:08:17;7.82;;;2.90;;
51949;SDS011;37974;53.218;6.640;2023-04-03T06:10:42;9.70;;;2.83;;
51949;SDS011;37974;53.218;6.640;2023-04-03T06:13:08;12.00;;;3.03;;
51949;SDS011;37974;53.218;6.640;2023-04-03T06:15:34;10.18;;;2.97;;
51949;SDS011;37974;53.218;6.640;2023-04-03T06:17:59;11.88;;;3.03;;
51949;SDS011;37974;53.218;6.640;2023-04-03T06:20:26;15.32;;;3.10;;
51949;SDS011;37974;53.218;6.640;2023-04-03T06:22:52;9.30;;;3.17;;
51949;SDS011;37974;53.218;6.640;2023-04-03T06:25:17;10.25;;;2.85;;
51949;SDS011;37974;53.218;6.640;2023-04-03T06:27:44;11.80;;;2.63;;
51949;SDS011;37974;53.218;6.640;2023-04-03T06:30:10;14.30;;;3.50;;
51949;SDS011;37974;53.218;6.640;2023-04-03T06:32:36;10.05;;;3.38;;
51949;SDS011;37974;53.218;6.640;2023-04-03T06:35:03;11.48;;;3.20;;
51949;SDS011;37974;53.218;6.640;2023-04-03T06:37:29;10.73;;;3.75;;
51949;SDS011;37974;53.218;6.640;2023-04-03T06:39:56;12.70;;;3.58;;
51949;SDS011;37974;53.218;6.640;2023-04-03T06:42:22;12.55;;;3.55;;
51949;SDS011;37974;53.218;6.640;2023-04-03T06:44:48;11.45;;;3.50;;
51949;SDS011;37974;53.218;6.640;2023-04-03T06:47:14;12.63;;;3.35;;
51949;SDS011;37974;53.218;6.640;2023-04-03T06:49:41;26.42;;;4.53;;
51949;SDS011;37974;53.218;6.640;2023-04-03T06:52:07;7.28;;;2.88;;
51949;SDS011;37974;53.218;6.640;2023-04-03T06:54:33;8.60;;;3.65;;
51949;SDS011;37974;53.218;6.640;2023-04-03T06:57:00;9.75;;;2.90;;
51949;SDS011;37974;53.218;6.640;2023-04-03T06:59:26;10.68;;;3.28;;
51949;SDS011;37974;53.218;6.640;2023-04-03T07:01:52;9.43;;;2.60;;
51949;SDS011;37974;53.218;6.640;2023-04-03T07:04:18;10.27;;;3.30;;
51949;SDS011;37974;53.218;6.640;2023-04-03T07:06:45;15.35;;;3.80;;
51949;SDS011;37974;53.218;6.640;2023-04-03T07:09:12;9.30;;;3.20;;
51949;SDS011;37974;53.218;6.640;2023-04-03T07:11:38;11.93;;;3.28;;
51949;SDS011;37974;53.218;6.640;2023-04-03T07:14:04;11.60;;;3.33;;
51949;SDS011;37974;53.218;6.640;2023-04-03T07:16:31;9.88;;;3.17;;
51949;SDS011;37974;53.218;6.640;2023-04-03T07:18:57;13.90;;;2.88;;
51949;SDS011;37974;53.218;6.640;2023-04-03T07:21:23;10.85;;;3.20;;
51949;SDS011;37974;53.218;6.640;2023-04-03T07:23:49;11.35;;;3.50;;
51949;SDS011;37974;53.218;6.640;2023-04-03T07:26:15;17.08;;;3.67;;
51949;SDS011;37974;53.218;6.640;2023-04-03T07:28:41;8.50;;;2.78;;
51949;SDS011;37974;53.218;6.640;2023-04-03T07:31:07;11.02;;;3.35;;
51949;SDS011;37974;53.218;6.640;2023-04-03T07:33:38;12.82;;;3.20;;
51949;SDS011;37974;53.218;6.640;2023-04-03T07:36:05;14.18;;;3.72;;
51949;SDS011;37974;53.218;6.640;2023-04-03T07:38:32;9.25;;;3.13;;
51949;SDS011;37974;53.218;6.640;2023-04-03T07:40:59;7.15;;;2.70;;
51949;SDS011;37974;53.218;6.640;2023-04-03T07:43:25;12.57;;;3.25;;
51949;SDS011;37974;53.218;6.640;2023-04-03T07:45:51;9.70;;;3.00;;
51949;SDS011;37974;53.218;6.640;2023-04-03T07:48:19;8.80;;;2.70;;
51949;SDS011;37974;53.218;6.640;2023-04-03T07:50:46;8.30;;;2.33;;
51949;SDS011;37974;53.218;6.640;2023-04-03T07:53:12;13.00;;;2.72;;
51949;SDS011;37974;53.218;6.640;2023-04-03T07:55:39;10.02;;;2.45;;
51949;SDS011;37974;53.218;6.640;2023-04-03T07:58:09;13.35;;;2.67;;
51949;SDS011;37974;53.218;6.640;2023-04-03T08:00:36;8.20;;;2.85;;
51949;SDS011;37974;53.218;6.640;2023-04-03T08:03:03;10.60;;;3.15;;
51949;SDS011;37974;53.218;6.640;2023-04-03T08:05:30;7.55;;;2.33;;
51949;SDS011;37974;53.218;6.640;2023-04-03T08:07:56;5.75;;;2.22;;
51949;SDS011;37974;53.218;6.640;2023-04-03T08:10:21;11.15;;;2.40;;
51949;SDS011;37974;53.218;6.640;2023-04-03T08:12:47;9.13;;;2.70;;
51949;SDS011;37974;53.218;6.640;2023-04-03T08:15:13;11.27;;;2.67;;
51949;SDS011;37974;53.218;6.640;2023-04-03T08:17:39;11.48;;;2.60;;
51949;SDS011;37974;53.218;6.640;2023-04-03T08:20:06;14.80;;;3.00;;
51949;SDS011;37974;53.218;6.640;2023-04-03T08:22:33;6.60;;;2.20;;
51949;SDS011;37974;53.218;6.640;2023-04-03T08:24:59;7.45;;;2.50;;
51949;SDS011;37974;53.218;6.640;2023-04-03T08:27:26;11.07;;;2.58;;
51949;SDS011;37974;53.218;6.640;2023-04-03T08:29:52;11.68;;;2.33;;
51949;SDS011;37974;53.218;6.640;2023-04-03T08:32:18;6.55;;;2.10;;
51949;SDS011;37974;53.218;6.640;2023-04-03T08:34:44;6.88;;;2.10;;
51949;SDS011;37974;53.218;6.640;2023-04-03T08:37:09;6.70;;;2.30;;
51949;SDS011;37974;53.218;6.640;2023-04-03T08:39:36;4.20;;;1.73;;
51949;SDS011;37974;53.218;6.640;2023-04-03T08:42:03;7.00;;;1.67;;
51949;SDS011;37974;53.218;6.640;2023-04-03T08:44:42;8.85;;;1.50;;
51949;SDS011;37974;53.218;6.640;2023-04-03T08:49:49;7.97;;;1.38;;
51949;SDS011;37974;53.218;6.640;2023-04-03T08:52:17;6.55;;;1.40;;
51949;SDS011;37974;53.218;6.640;2023-04-03T08:57:15;8.25;;;1.40;;
51949;SDS011;37974;53.218;6.640;2023-04-03T08:59:45;5.55;;;1.20;;
51949;SDS011;37974;53.218;6.640;2023-04-03T09:02:17;10.25;;;1.60;;
51949;SDS011;37974;53.218;6.640;2023-04-03T09:04:49;47.88;;;3.30;;
51949;SDS011;37974;53.218;6.640;2023-04-03T09:07:17;6.47;;;1.38;;
51949;SDS011;37974;53.218;6.640;2023-04-03T09:09:53;4.72;;;1.40;;
51949;SDS011;37974;53.218;6.640;2023-04-03T09:17:32;26.73;;;2.53;;
51949;SDS011;37974;53.218;6.640;2023-04-03T09:22:51;3.63;;;1.23;;
51949;SDS011;37974;53.218;6.640;2023-04-03T09:25:25;7.63;;;1.38;;
51949;SDS011;37974;53.218;6.640;2023-04-03T09:27:57;4.63;;;1.10;;
51949;SDS011;37974;53.218;6.640;2023-04-03T09:30:25;3.30;;;1.10;;
51949;SDS011;37974;53.218;6.640;2023-04-03T09:32:52;8.07;;;1.67;;
51949;SDS011;37974;53.218;6.640;2023-04-03T09:37:59;5.43;;;1.05;;
51949;SDS011;37974;53.218;6.640;2023-04-03T09:42:57;3.78;;;1.13;;
51949;SDS011;37974;53.218;6.640;2023-04-03T09:45:26;4.82;;;1.15;;
51949;SDS011;37974;53.218;6.640;2023-04-03T09:50:38;5.47;;;1.20;;
51949;SDS011;37974;53.218;6.640;2023-04-03T09:53:34;5.00;;;1.40;;
51949;SDS011;37974;53.218;6.640;2023-04-03T09:58:43;4.00;;;1.30;;
51949;SDS011;37974;53.218;6.640;2023-04-03T10:01:30;7.22;;;1.38;;
51949;SDS011;37974;53.218;6.640;2023-04-03T10:04:12;4.85;;;1.23;;
51949;SDS011;37974;53.218;6.640;2023-04-03T10:06:42;6.63;;;1.13;;
51949;SDS011;37974;53.218;6.640;2023-04-03T10:14:27;5.07;;;1.40;;
51949;SDS011;37974;53.218;6.640;2023-04-03T10:19:41;5.38;;;1.13;;
51949;SDS011;37974;53.218;6.640;2023-04-03T10:24:51;7.40;;;1.15;;
51949;SDS011;37974;53.218;6.640;2023-04-03T10:29:50;4.47;;;1.10;;
51949;SDS011;37974;53.218;6.640;2023-04-03T10:32:26;7.68;;;1.20;;
51949;SDS011;37974;53.218;6.640;2023-04-03T10:37:59;3.10;;;1.00;;
51949;SDS011;37974;53.218;6.640;2023-04-03T10:40:47;4.07;;;1.17;;
51949;SDS011;37974;53.218;6.640;2023-04-03T10:43:43;3.88;;;1.00;;
51949;SDS011;37974;53.218;6.640;2023-04-03T10:46:35;4.15;;;1.05;;
51949;SDS011;37974;53.218;6.640;2023-04-03T10:49:19;8.13;;;1.15;;
51949;SDS011;37974;53.218;6.640;2023-04-03T10:51:54;4.80;;;1.20;;
51949;SDS011;37974;53.218;6.640;2023-04-03T10:54:36;2.55;;;0.98;;
51949;SDS011;37974;53.218;6.640;2023-04-03T10:57:08;3.08;;;0.75;;
51949;SDS011;37974;53.218;6.640;2023-04-03T10:59:36;1.85;;;0.65;;
51949;SDS011;37974;53.218;6.640;2023-04-03T11:02:05;2.40;;;0.90;;
51949;SDS011;37974;53.218;6.640;2023-04-03T11:04:36;4.28;;;0.90;;
51949;SDS011;37974;53.218;6.640;2023-04-03T11:07:08;4.18;;;0.95;;
51949;SDS011;37974;53.218;6.640;2023-04-03T11:09:40;3.40;;;0.90;;
51949;SDS011;37974;53.218;6.640;2023-04-03T11:12:15;3.65;;;0.70;;
51949;SDS011;37974;53.218;6.640;2023-04-03T11:14:51;2.00;;;0.60;;
51949;SDS011;37974;53.218;6.640;2023-04-03T11:17:22;6.35;;;0.88;;
51949;SDS011;37974;53.218;6.640;2023-04-03T11:19:59;2.92;;;0.77;;
51949;SDS011;37974;53.218;6.640;2023-04-03T11:22:28;3.33;;;0.75;;
51949;SDS011;37974;53.218;6.640;2023-04-03T11:25:02;3.13;;;0.73;;
51949;SDS011;37974;53.218;6.640;2023-04-03T11:27:30;6.50;;;1.00;;
51949;SDS011;37974;53.218;6.640;2023-04-03T11:30:05;4.50;;;0.93;;
51949;SDS011;37974;53.218;6.640;2023-04-03T11:35:01;3.35;;;0.80;;
51949;SDS011;37974;53.218;6.640;2023-04-03T11:37:34;2.90;;;0.70;;
51949;SDS011;37974;53.218;6.640;2023-04-03T11:42:43;6.40;;;0.90;;
51949;SDS011;37974;53.218;6.640;2023-04-03T11:47:53;3.97;;;0.90;;
51949;SDS011;37974;53.218;6.640;2023-04-03T12:05:52;5.30;;;1.00;;
51949;SDS011;37974;53.218;6.640;2023-04-03T12:08:25;10.40;;;0.95;;
51949;SDS011;37974;53.218;6.640;2023-04-03T12:16:24;7.00;;;0.88;;
51949;SDS011;37974;53.218;6.640;2023-04-03T12:40:50;3.97;;;0.60;;
51949;SDS011;37974;53.218;6.640;2023-04-03T12:43:25;7.18;;;1.30;;
51949;SDS011;37974;53.218;6.640;2023-04-03T12:48:47;2.85;;;0.70;;
51949;SDS011;37974;53.218;6.640;2023-04-03T12:51:22;5.18;;;1.05;;
51949;SDS011;37974;53.218;6.640;2023-04-03T12:54:01;3.38;;;0.73;;
51949;SDS011;37974;53.218;6.640;2023-04-03T12:56:38;4.15;;;0.90;;
51949;SDS011;37974;53.218;6.640;2023-04-03T12:59:18;4.65;;;1.00;;
51949;SDS011;37974;53.218;6.640;2023-04-03T13:01:55;1.35;;;0.50;;
51949;SDS011;37974;53.218;6.640;2023-04-03T13:04:23;4.18;;;0.55;;
51949;SDS011;37974;53.218;6.640;2023-04-03T13:06:49;2.67;;;0.60;;
51949;SDS011;37974;53.218;6.640;2023-04-03T13:09:18;3.05;;;0.55;;
51949;SDS011;37974;53.218;6.640;2023-04-03T13:11:58;1.75;;;0.60;;
51949;SDS011;37974;53.218;6.640;2023-04-03T13:14:26;7.63;;;1.70;;
51949;SDS011;37974;53.218;6.640;2023-04-03T13:16:57;3.00;;;0.77;;
51949;SDS011;37974;53.218;6.640;2023-04-03T13:19:25;2.80;;;0.95;;
51949;SDS011;37974;53.218;6.640;2023-04-03T13:21:55;7.43;;;1.00;;
51949;SDS011;37974;53.218;6.640;2023-04-03T13:24:25;5.97;;;1.35;;
51949;SDS011;37974;53.218;6.640;2023-04-03T13:26:52;4.88;;;0.80;;
51949;SDS011;37974;53.218;6.640;2023-04-03T13:29:23;3.55;;;1.00;;
51949;SDS011;37974;53.218;6.640;2023-04-03T13:31:53;4.72;;;0.93;;
51949;SDS011;37974;53.218;6.640;2023-04-03T13:34:21;5.78;;;1.23;;
51949;SDS011;37974;53.218;6.640;2023-04-03T13:41:44;4.40;;;0.77;;
51949;SDS011;37974;53.218;6.640;2023-04-03T13:46:47;5.20;;;0.90;;
51949;SDS011;37974;53.218;6.640;2023-04-03T13:49:32;2.83;;;0.82;;
51949;SDS011;37974;53.218;6.640;2023-04-03T13:52:01;4.03;;;1.13;;
51949;SDS011;37974;53.218;6.640;2023-04-03T13:54:47;3.50;;;1.00;;
51949;SDS011;37974;53.218;6.640;2023-04-03T13:57:16;4.18;;;1.02;;
51949;SDS011;37974;53.218;6.640;2023-04-03T13:59:42;5.97;;;1.20;;
51949;SDS011;37974;53.218;6.640;2023-04-03T14:07:08;11.65;;;2.17;;
51949;SDS011;37974;53.218;6.640;2023-04-03T14:09:34;4.07;;;1.08;;
51949;SDS011;37974;53.218;6.640;2023-04-03T14:12:02;3.58;;;1.20;;
51949;SDS011;37974;53.218;6.640;2023-04-03T14:14:33;3.83;;;0.80;;
51949;SDS011;37974;53.218;6.640;2023-04-03T14:17:03;4.15;;;1.15;;
51949;SDS011;37974;53.218;6.640;2023-04-03T14:19:39;4.25;;;1.00;;
51949;SDS011;37974;53.218;6.640;2023-04-03T14:22:12;4.18;;;0.98;;
51949;SDS011;37974;53.218;6.640;2023-04-03T14:24:41;2.83;;;1.10;;
51949;SDS011;37974;53.218;6.640;2023-04-03T14:27:11;6.70;;;1.10;;
51949;SDS011;37974;53.218;6.640;2023-04-03T14:29:43;4.05;;;0.90;;
51949;SDS011;37974;53.218;6.640;2023-04-03T14:32:11;2.22;;;0.75;;
51949;SDS011;37974;53.218;6.640;2023-04-03T14:34:39;3.60;;;0.90;;
51949;SDS011;37974;53.218;6.640;2023-04-03T14:37:05;6.57;;;1.17;;
51949;SDS011;37974;53.218;6.640;2023-04-03T14:39:35;2.47;;;0.90;;
51949;SDS011;37974;53.218;6.640;2023-04-03T14:42:00;4.05;;;0.90;;
51949;SDS011;37974;53.218;6.640;2023-04-03T14:44:26;4.03;;;0.90;;
51949;SDS011;37974;53.218;6.640;2023-04-03T14:46:52;5.65;;;1.02;;
51949;SDS011;37974;53.218;6.640;2023-04-03T14:49:19;5.72;;;0.90;;
51949;SDS011;37974;53.218;6.640;2023-04-03T14:51:47;3.28;;;0.80;;
51949;SDS011;37974;53.218;6.640;2023-04-03T14:54:15;4.50;;;1.50;;
51949;SDS011;37974;53.218;6.640;2023-04-03T14:56:46;2.70;;;0.82;;
51949;SDS011;37974;53.218;6.640;2023-04-03T14:59:13;2.28;;;0.88;;
51949;SDS011;37974;53.218;6.640;2023-04-03T15:01:39;3.08;;;0.80;;
51949;SDS011;37974;53.218;6.640;2023-04-03T15:04:10;3.88;;;1.10;;
51949;SDS011;37974;53.218;6.640;2023-04-03T15:06:37;4.47;;;0.80;;
51949;SDS011;37974;53.218;6.640;2023-04-03T15:09:03;3.20;;;0.95;;
51949;SDS011;37974;53.218;6.640;2023-04-03T15:11:28;5.32;;;0.93;;
51949;SDS011;37974;53.218;6.640;2023-04-03T15:13:54;5.82;;;1.58;;
51949;SDS011;37974;53.218;6.640;2023-04-03T15:16:20;9.30;;;1.42;;
51949;SDS011;37974;53.218;6.640;2023-04-03T15:18:47;6.45;;;1.25;;
51949;SDS011;37974;53.218;6.640;2023-04-03T15:21:13;4.43;;;0.93;;
51949;SDS011;37974;53.218;6.640;2023-04-03T15:23:38;6.18;;;1.10;;
51949;SDS011;37974;53.218;6.640;2023-04-03T15:26:05;2.50;;;0.80;;
51949;SDS011;37974;53.218;6.640;2023-04-03T15:28:38;3.53;;;0.77;;
51949;SDS011;37974;53.218;6.640;2023-04-03T15:31:05;4.93;;;1.08;;
51949;SDS011;37974;53.218;6.640;2023-04-03T15:33:32;5.82;;;1.20;;
51949;SDS011;37974;53.218;6.640;2023-04-03T15:35:59;6.97;;;0.80;;
51949;SDS011;37974;53.218;6.640;2023-04-03T15:38:28;4.00;;;0.80;;
51949;SDS011;37974;53.218;6.640;2023-04-03T15:40:54;3.30;;;1.30;;
51949;SDS011;37974;53.218;6.640;2023-04-03T15:43:21;2.40;;;0.60;;
51949;SDS011;37974;53.218;6.640;2023-04-03T15:45:47;2.92;;;0.50;;
51949;SDS011;37974;53.218;6.640;2023-04-03T15:48:13;2.47;;;0.70;;
51949;SDS011;37974;53.218;6.640;2023-04-03T15:50:40;1.75;;;0.40;;
51949;SDS011;37974;53.218;6.640;2023-04-03T15:53:07;1.27;;;0.45;;
51949;SDS011;37974;53.218;6.640;2023-04-03T15:55:34;2.90;;;0.80;;
51949;SDS011;37974;53.218;6.640;2023-04-03T15:58:01;1.60;;;0.55;;
51949;SDS011;37974;53.218;6.640;2023-04-03T16:00:27;3.63;;;0.75;;
51949;SDS011;37974;53.218;6.640;2023-04-03T16:02:55;5.53;;;1.00;;
51949;SDS011;37974;53.218;6.640;2023-04-03T16:05:26;5.00;;;0.80;;
51949;SDS011;37974;53.218;6.640;2023-04-03T16:07:52;4.75;;;0.85;;
51949;SDS011;37974;53.218;6.640;2023-04-03T16:10:20;5.00;;;0.90;;
51949;SDS011;37974;53.218;6.640;2023-04-03T16:12:46;3.08;;;0.55;;
51949;SDS011;37974;53.218;6.640;2023-04-03T16:15:12;4.57;;;0.88;;
51949;SDS011;37974;53.218;6.640;2023-04-03T16:17:37;4.35;;;0.80;;
51949;SDS011;37974;53.218;6.640;2023-04-03T16:20:05;3.80;;;0.90;;
51949;SDS011;37974;53.218;6.640;2023-04-03T16:22:33;3.22;;;0.80;;
51949;SDS011;37974;53.218;6.640;2023-04-03T16:24:58;2.22;;;0.60;;
51949;SDS011;37974;53.218;6.640;2023-04-03T16:27:24;3.08;;;0.70;;
51949;SDS011;37974;53.218;6.640;2023-04-03T16:29:54;5.22;;;0.85;;
51949;SDS011;37974;53.218;6.640;2023-04-03T16:32:20;5.00;;;0.90;;
51949;SDS011;37974;53.218;6.640;2023-04-03T16:34:47;4.00;;;0.70;;
51949;SDS011;37974;53.218;6.640;2023-04-03T16:37:13;2.72;;;0.68;;
51949;SDS011;37974;53.218;6.640;2023-04-03T16:39:40;4.28;;;1.02;;
51949;SDS011;37974;53.218;6.640;2023-04-03T16:42:05;2.88;;;0.90;;